createdAt,value
2022-07-29T00:00:00.075Z,4.60
2022-07-29T00:02:28.455Z,5.47
2022-07-29T00:04:55.684Z,5.20
2022-07-29T00:07:22.751Z,5.50
2022-07-29T00:09:50.742Z,5.35
2022-07-29T00:12:25.464Z,5.75
2022-07-29T00:14:56.160Z,5.10
2022-07-29T00:17:24.722Z,5.70
2022-07-29T00:19:51.932Z,4.73
2022-07-29T00:22:19.126Z,5.00
2022-07-29T00:24:47.869Z,4.67
2022-07-29T00:27:14.983Z,4.32
2022-07-29T00:29:42.168Z,4.60
2022-07-29T00:32:09.547Z,4.32
2022-07-29T00:34:55.174Z,4.57
2022-07-29T00:37:22.386Z,4.83
2022-07-29T00:39:49.509Z,4.70
2022-07-29T00:42:17.551Z,5.07
2022-07-29T00:44:45.140Z,4.90
2022-07-29T00:47:13.213Z,4.40
2022-07-29T00:49:43.769Z,4.37
2022-07-29T00:52:12.071Z,4.97
2022-07-29T00:54:44.402Z,4.83
2022-07-29T00:57:12.696Z,4.60
2022-07-29T00:59:40.011Z,4.57
2022-07-29T01:02:07.191Z,4.47
2022-07-29T01:04:34.383Z,5.37
2022-07-29T01:07:05.125Z,4.70
2022-07-29T01:09:46.906Z,4.53
2022-07-29T01:12:23.114Z,4.00
2022-07-29T01:14:51.021Z,4.60
2022-07-29T01:17:52.546Z,4.80
2022-07-29T01:20:59.494Z,5.17
2022-07-29T01:23:36.946Z,5.00
2022-07-29T01:26:41.718Z,4.30
2022-07-29T01:29:35.823Z,4.37
2022-07-29T01:32:22.579Z,4.72
2022-07-29T01:34:55.445Z,4.50
2022-07-29T01:37:41.108Z,4.93
2022-07-29T01:40:19.935Z,4.43
2022-07-29T01:42:52.586Z,4.80
2022-07-29T01:45:48.676Z,5.10
2022-07-29T01:48:21.943Z,4.67
2022-07-29T01:50:52.924Z,4.83
2022-07-29T01:53:37.680Z,4.93
2022-07-29T01:56:05.687Z,4.57
2022-07-29T01:58:34.080Z,4.70
2022-07-29T02:01:02.769Z,4.67
2022-07-29T02:03:31.216Z,4.53
2022-07-29T02:06:02.600Z,4.63
2022-07-29T02:08:31.532Z,5.13
2022-07-29T02:10:59.526Z,4.83
2022-07-29T02:13:28.945Z,4.80
2022-07-29T02:15:58.398Z,4.23
2022-07-29T02:18:29.117Z,5.57
2022-07-29T02:20:57.930Z,4.28
2022-07-29T02:23:26.201Z,5.00
2022-07-29T02:25:56.997Z,4.97
2022-07-29T02:28:26.548Z,4.43
2022-07-29T02:30:56.619Z,4.30
2022-07-29T02:33:26.370Z,4.43
2022-07-29T02:35:54.123Z,5.13
2022-07-29T02:38:41.783Z,4.93
2022-07-29T02:41:17.612Z,4.60
2022-07-29T02:43:49.677Z,4.97
2022-07-29T02:46:32.311Z,4.60
2022-07-29T02:49:10.461Z,4.87
2022-07-29T02:51:44.532Z,4.33
2022-07-29T02:54:17.792Z,4.50
2022-07-29T02:56:46.587Z,5.63
2022-07-29T02:59:18.272Z,5.03
2022-07-29T03:01:46.826Z,4.50
2022-07-29T03:04:16.290Z,4.50
2022-07-29T03:06:45.740Z,4.53
2022-07-29T03:09:14.338Z,3.60
2022-07-29T03:11:49.224Z,4.60
2022-07-29T03:14:20.569Z,3.93
2022-07-29T03:16:49.906Z,4.83
2022-07-29T03:19:17.942Z,4.20
2022-07-29T03:21:45.110Z,4.23
2022-07-29T03:24:24.974Z,4.40
2022-07-29T03:26:51.982Z,3.90
2022-07-29T03:29:18.930Z,4.00
2022-07-29T03:31:47.958Z,4.63
2022-07-29T03:34:16.057Z,4.40
2022-07-29T03:36:43.569Z,4.63
2022-07-29T03:39:14.667Z,3.97
2022-07-29T03:41:44.071Z,3.33
2022-07-29T03:44:12.257Z,3.57
2022-07-29T03:46:40.928Z,3.70
2022-07-29T03:49:10.061Z,3.77
2022-07-29T03:51:38.599Z,3.90
2022-07-29T03:54:10.203Z,3.77
2022-07-29T03:56:41.811Z,4.00
2022-07-29T03:59:09.445Z,3.67
2022-07-29T04:01:37.991Z,3.78
2022-07-29T04:04:05.747Z,3.60
2022-07-29T04:06:44.931Z,3.83
2022-07-29T04:09:13.213Z,3.72
2022-07-29T04:11:59.628Z,3.23
2022-07-29T04:14:28.256Z,3.92
2022-07-29T04:16:55.113Z,4.23
2022-07-29T04:19:22.243Z,3.88
2022-07-29T04:21:49.498Z,2.80
2022-07-29T04:24:17.267Z,3.20
2022-07-29T04:26:46.101Z,3.65
2022-07-29T04:29:13.078Z,3.72
2022-07-29T04:31:40.180Z,3.58
2022-07-29T04:34:07.693Z,3.30
2022-07-29T04:36:34.723Z,3.72
2022-07-29T04:39:02.353Z,3.33
2022-07-29T04:41:33.169Z,3.17
2022-07-29T04:44:07.209Z,3.70
2022-07-29T04:46:39.337Z,3.08
2022-07-29T04:49:06.465Z,3.20
2022-07-29T04:51:33.585Z,2.78
2022-07-29T04:54:00.784Z,3.13
2022-07-29T04:56:28.434Z,2.90
2022-07-29T04:58:55.628Z,2.65
2022-07-29T05:01:22.920Z,2.20
2022-07-29T05:03:49.946Z,2.30
2022-07-29T05:06:17.057Z,2.20
2022-07-29T05:08:44.214Z,2.30
2022-07-29T05:11:13.522Z,3.83
2022-07-29T05:13:45.301Z,2.00
2022-07-29T05:16:14.425Z,2.13
2022-07-29T05:18:43.220Z,2.30
2022-07-29T05:21:10.435Z,2.03
2022-07-29T05:23:37.567Z,1.80
2022-07-29T05:26:04.811Z,1.75
2022-07-29T05:28:35.984Z,1.60
2022-07-29T05:31:03.235Z,1.92
2022-07-29T05:33:35.606Z,1.38
2022-07-29T05:36:08.224Z,1.65
2022-07-29T05:38:38.748Z,1.88
2022-07-29T05:41:06.374Z,2.17
2022-07-29T05:43:33.730Z,1.95
2022-07-29T05:46:00.923Z,2.20
2022-07-29T05:48:28.467Z,1.77
2022-07-29T05:50:56.015Z,2.05
2022-07-29T05:53:23.343Z,2.03
2022-07-29T05:55:50.967Z,2.13
2022-07-29T05:58:17.899Z,2.47
2022-07-29T06:00:45.091Z,2.42
2022-07-29T06:03:12.568Z,2.10
2022-07-29T06:05:39.739Z,1.90
2022-07-29T06:08:08.347Z,1.50
2022-07-29T06:10:38.620Z,2.08
2022-07-29T06:13:05.796Z,1.85
2022-07-29T06:15:33.411Z,1.48
2022-07-29T06:18:01.533Z,1.50
2022-07-29T06:20:32.696Z,1.65
2022-07-29T06:23:00.388Z,1.65
2022-07-29T06:25:30.372Z,1.40
2022-07-29T06:27:58.358Z,1.52
2022-07-29T06:30:25.506Z,1.42
2022-07-29T06:32:52.820Z,1.40
2022-07-29T06:35:38.483Z,1.17
2022-07-29T06:38:30.137Z,1.95
2022-07-29T06:41:03.747Z,1.20
2022-07-29T06:43:33.190Z,1.98
2022-07-29T06:46:02.317Z,1.67
2022-07-29T06:48:29.997Z,1.30
2022-07-29T06:50:57.218Z,1.17
2022-07-29T06:53:24.763Z,1.40
2022-07-29T06:55:52.036Z,1.27
2022-07-29T06:58:21.372Z,1.30
2022-07-29T07:00:49.371Z,1.90
2022-07-29T07:03:17.618Z,1.40
2022-07-29T07:05:46.829Z,1.52
2022-07-29T07:08:14.326Z,0.90
2022-07-29T07:10:41.279Z,1.60
2022-07-29T07:13:08.422Z,1.60
2022-07-29T07:15:39.361Z,1.10
2022-07-29T07:18:07.755Z,1.38
2022-07-29T07:20:35.528Z,1.30
2022-07-29T07:23:02.628Z,1.30
2022-07-29T07:25:30.158Z,1.48
2022-07-29T07:27:57.223Z,1.30
2022-07-29T07:30:24.279Z,1.10
2022-07-29T07:32:51.487Z,1.13
2022-07-29T07:35:18.703Z,1.00
2022-07-29T07:37:45.604Z,1.38
2022-07-29T07:40:12.886Z,1.30
2022-07-29T07:42:46.293Z,1.10
2022-07-29T07:45:16.446Z,1.33
2022-07-29T07:47:44.049Z,1.30
2022-07-29T07:50:18.203Z,1.10
2022-07-29T07:52:51.204Z,1.42
2022-07-29T07:55:18.609Z,1.40
2022-07-29T07:57:46.156Z,0.90
2022-07-29T08:00:17.562Z,1.23
2022-07-29T08:02:46.218Z,1.70
2022-07-29T08:05:17.950Z,1.60
2022-07-29T08:07:47.555Z,1.20
2022-07-29T08:10:36.640Z,1.10
2022-07-29T08:13:08.067Z,1.30
2022-07-29T08:15:35.729Z,1.35
2022-07-29T08:18:08.237Z,1.05
2022-07-29T08:20:36.763Z,1.52
2022-07-29T08:23:05.725Z,1.00
2022-07-29T08:25:34.724Z,1.05
2022-07-29T08:28:06.893Z,1.05
2022-07-29T08:30:33.980Z,1.00
2022-07-29T08:33:01.257Z,1.40
2022-07-29T08:35:34.785Z,2.00
2022-07-29T08:38:04.373Z,0.90
2022-07-29T08:40:32.668Z,0.93
2022-07-29T08:43:06.327Z,1.17
2022-07-29T08:45:48.726Z,1.00
2022-07-29T08:48:24.267Z,1.10
2022-07-29T08:50:55.301Z,1.10
2022-07-29T08:53:24.836Z,2.03
2022-07-29T08:55:51.872Z,1.10
2022-07-29T08:58:23.168Z,1.70
2022-07-29T09:00:56.134Z,0.90
2022-07-29T09:03:32.098Z,1.17
2022-07-29T09:06:00.083Z,1.60
2022-07-29T09:08:27.632Z,0.95
2022-07-29T09:10:57.066Z,1.10
2022-07-29T09:13:24.212Z,1.20
2022-07-29T09:15:51.384Z,0.77
2022-07-29T09:18:37.470Z,1.00
2022-07-29T09:21:24.770Z,1.13
2022-07-29T09:24:05.866Z,1.63
2022-07-29T09:26:35.187Z,1.10
2022-07-29T09:29:18.735Z,1.25
2022-07-29T09:31:48.551Z,1.00
2022-07-29T09:34:18.307Z,1.00
2022-07-29T09:36:51.894Z,1.17
2022-07-29T09:39:28.183Z,1.08
2022-07-29T09:41:57.355Z,1.40
2022-07-29T09:44:25.088Z,1.40
2022-07-29T09:47:07.207Z,1.20
2022-07-29T09:49:35.650Z,1.30
2022-07-29T09:52:10.819Z,1.00
2022-07-29T09:54:38.975Z,0.88
2022-07-29T09:57:08.072Z,1.10
2022-07-29T09:59:35.313Z,0.82
2022-07-29T10:02:02.676Z,1.08
2022-07-29T10:04:43.327Z,1.67
2022-07-29T10:07:10.957Z,1.00
2022-07-29T10:09:37.983Z,1.10
2022-07-29T10:12:16.257Z,1.48
2022-07-29T10:14:44.067Z,1.35
2022-07-29T10:17:11.928Z,1.00
2022-07-29T10:19:39.836Z,2.05
2022-07-29T10:22:10.645Z,1.50
2022-07-29T10:24:39.447Z,0.95
2022-07-29T10:27:08.890Z,0.90
2022-07-29T10:29:37.136Z,1.13
2022-07-29T10:32:31.493Z,1.00
2022-07-29T10:35:30.841Z,1.10
2022-07-29T10:38:17.462Z,0.80
2022-07-29T10:41:09.484Z,1.00
2022-07-29T10:43:44.682Z,0.98
2022-07-29T10:46:15.484Z,0.65
2022-07-29T10:49:08.306Z,1.00
2022-07-29T10:51:57.657Z,0.77
2022-07-29T10:54:43.983Z,1.02
2022-07-29T10:57:25.740Z,0.95
2022-07-29T11:00:01.995Z,1.45
2022-07-29T11:02:42.196Z,0.80
2022-07-29T11:05:22.216Z,1.10
2022-07-29T11:08:19.772Z,1.00
2022-07-29T11:11:12.528Z,1.13
2022-07-29T11:13:49.395Z,1.05
2022-07-29T11:16:21.267Z,0.80
2022-07-29T11:19:13.535Z,1.00
2022-07-29T11:21:54.702Z,1.10
2022-07-29T11:24:35.620Z,0.90
2022-07-29T11:27:18.002Z,1.38
2022-07-29T11:30:04.750Z,1.00
2022-07-29T11:32:40.816Z,1.13
2022-07-29T11:35:38.075Z,0.80
2022-07-29T11:38:29.190Z,1.10
2022-07-29T11:41:31.758Z,0.90
2022-07-29T11:44:01.391Z,1.10
2022-07-29T11:46:50.444Z,0.77
2022-07-29T11:49:32.408Z,1.00
2022-07-29T11:52:04.142Z,0.70
2022-07-29T11:54:38.963Z,1.05
2022-07-29T11:57:36.545Z,1.08
2022-07-29T12:00:12.196Z,0.95
2022-07-29T12:02:48.759Z,0.70
2022-07-29T12:05:35.989Z,0.93
2022-07-29T12:08:12.592Z,0.70
2022-07-29T12:10:42.972Z,1.00
2022-07-29T12:13:11.299Z,0.77
2022-07-29T12:15:46.814Z,0.60
2022-07-29T12:18:20.107Z,0.77
2022-07-29T12:20:58.976Z,1.02
2022-07-29T12:23:34.929Z,0.93
2022-07-29T12:26:07.595Z,0.90
2022-07-29T12:28:40.597Z,1.15
2022-07-29T12:31:15.077Z,0.90
2022-07-29T12:34:02.621Z,0.88
2022-07-29T12:36:29.645Z,0.80
2022-07-29T12:38:56.619Z,0.93
2022-07-29T12:41:23.582Z,0.80
2022-07-29T12:43:57.324Z,0.70
2022-07-29T12:46:24.280Z,0.70
2022-07-29T12:48:57.523Z,0.90
2022-07-29T12:51:32.092Z,0.80
2022-07-29T12:54:08.080Z,0.80
2022-07-29T12:56:44.003Z,0.73
2022-07-29T12:59:17.886Z,0.77
2022-07-29T13:01:48.028Z,0.82
2022-07-29T13:04:31.541Z,0.70
2022-07-29T13:07:02.414Z,0.68
2022-07-29T13:09:42.964Z,0.80
2022-07-29T13:12:14.309Z,0.70
2022-07-29T13:14:46.418Z,0.95
2022-07-29T13:17:24.213Z,0.68
2022-07-29T13:20:06.280Z,1.08
2022-07-29T13:22:36.980Z,0.68
2022-07-29T13:25:04.172Z,0.82
2022-07-29T13:27:37.301Z,0.60
2022-07-29T13:30:09.544Z,0.82
2022-07-29T13:32:37.506Z,0.95
2022-07-29T13:35:08.755Z,0.70
2022-07-29T13:37:39.457Z,0.70
2022-07-29T13:40:08.751Z,0.70
2022-07-29T13:42:35.834Z,0.77
2022-07-29T13:45:03.921Z,0.57
2022-07-29T13:47:32.817Z,0.70
2022-07-29T13:50:05.163Z,0.70
2022-07-29T13:52:33.416Z,0.80
2022-07-29T13:55:00.519Z,1.13
2022-07-29T13:57:28.823Z,0.75
2022-07-29T13:59:56.145Z,0.85
2022-07-29T14:02:25.775Z,0.60
2022-07-29T14:04:55.057Z,0.98
2022-07-29T14:07:23.265Z,0.80
2022-07-29T14:09:50.146Z,0.80
2022-07-29T14:12:17.018Z,0.73
2022-07-29T14:14:44.582Z,0.90
2022-07-29T14:17:14.301Z,1.00
2022-07-29T14:19:41.229Z,0.60
2022-07-29T14:22:09.528Z,0.90
2022-07-29T14:24:38.233Z,0.60
2022-07-29T14:27:08.422Z,0.90
2022-07-29T14:29:38.278Z,0.88
2022-07-29T14:32:11.191Z,0.65
2022-07-29T14:34:39.057Z,0.70
2022-07-29T14:37:07.043Z,0.82
2022-07-29T14:39:40.744Z,0.70
2022-07-29T14:42:12.351Z,0.60
2022-07-29T14:44:40.746Z,0.68
2022-07-29T14:47:08.659Z,0.88
2022-07-29T14:49:36.279Z,0.60
2022-07-29T14:52:03.446Z,0.70
2022-07-29T14:54:30.445Z,0.80
2022-07-29T14:56:58.921Z,0.68
2022-07-29T14:59:26.651Z,0.57
2022-07-29T15:01:53.606Z,0.80
2022-07-29T15:04:20.597Z,0.70
2022-07-29T15:06:47.570Z,0.60
2022-07-29T15:09:14.588Z,0.70
2022-07-29T15:11:41.502Z,0.80
2022-07-29T15:14:08.521Z,0.70
2022-07-29T15:16:39.385Z,0.77
2022-07-29T15:19:10.984Z,0.65
2022-07-29T15:21:41.336Z,0.75
2022-07-29T15:24:15.530Z,0.52
2022-07-29T15:26:43.474Z,0.70
2022-07-29T15:29:10.614Z,0.70
2022-07-29T15:31:37.541Z,0.60
2022-07-29T15:34:06.291Z,1.15
2022-07-29T15:39:21.311Z,0.60
2022-07-29T15:41:48.182Z,0.80
2022-07-29T15:44:15.054Z,1.38
2022-07-29T15:47:01.254Z,0.80
2022-07-29T15:49:47.666Z,0.60
2022-07-29T15:52:18.355Z,0.70
2022-07-29T15:54:46.242Z,0.70
2022-07-29T15:57:13.662Z,0.60
2022-07-29T15:59:40.544Z,0.82
2022-07-29T16:02:07.624Z,0.70
2022-07-29T16:04:34.558Z,0.82
2022-07-29T16:07:01.901Z,1.00
2022-07-29T16:09:29.050Z,1.00
2022-07-29T16:11:56.719Z,1.48
2022-07-29T16:14:24.027Z,1.00
2022-07-29T16:16:55.699Z,1.75
2022-07-29T16:19:23.010Z,1.05
2022-07-29T16:21:49.884Z,1.10
2022-07-29T16:24:16.812Z,0.93
2022-07-29T16:26:43.802Z,1.20
2022-07-29T16:29:10.697Z,1.02
2022-07-29T16:31:37.633Z,1.05
2022-07-29T16:34:04.561Z,1.20
2022-07-29T16:36:32.372Z,1.20
2022-07-29T16:38:59.798Z,0.88
2022-07-29T16:41:27.191Z,1.00
2022-07-29T16:43:55.356Z,0.90
2022-07-29T16:46:22.368Z,1.02
2022-07-29T16:48:51.381Z,0.93
2022-07-29T16:51:18.402Z,0.95
2022-07-29T16:53:45.701Z,0.95
2022-07-29T16:56:16.581Z,1.10
2022-07-29T16:58:44.125Z,1.30
2022-07-29T17:01:11.859Z,1.10
2022-07-29T17:04:00.370Z,1.05
2022-07-29T17:06:29.629Z,1.10
2022-07-29T17:08:57.140Z,0.70
2022-07-29T17:11:53.424Z,0.90
2022-07-29T17:14:11.263Z,0.90
2022-07-29T17:16:38.288Z,0.90
2022-07-29T17:19:05.337Z,1.45
2022-07-29T17:21:32.263Z,0.93
2022-07-29T17:23:59.775Z,1.40
2022-07-29T17:26:28.094Z,1.17
2022-07-29T17:28:55.691Z,0.95
2022-07-29T17:31:23.561Z,1.17
2022-07-29T17:33:50.560Z,1.10
2022-07-29T17:36:23.849Z,1.30
2022-07-29T17:38:56.133Z,1.45
2022-07-29T17:41:23.693Z,1.02
2022-07-29T17:43:51.536Z,0.93
2022-07-29T17:46:19.927Z,1.13
2022-07-29T17:48:47.185Z,1.17
2022-07-29T17:51:14.443Z,1.25
2022-07-29T17:53:41.578Z,1.73
2022-07-29T17:56:08.567Z,1.70
2022-07-29T17:58:35.544Z,1.40
2022-07-29T18:01:02.482Z,1.45
2022-07-29T18:03:29.685Z,1.70
2022-07-29T18:05:56.651Z,2.53
2022-07-29T18:08:24.087Z,1.73
2022-07-29T18:10:51.534Z,1.50
2022-07-29T18:13:18.454Z,1.83
2022-07-29T18:15:46.349Z,2.13
2022-07-29T18:18:14.656Z,2.70
2022-07-29T18:20:42.964Z,3.17
2022-07-29T18:23:10.467Z,3.03
2022-07-29T18:25:37.946Z,2.40
2022-07-29T18:28:06.083Z,2.83
2022-07-29T18:30:42.176Z,2.60
2022-07-29T18:33:21.733Z,3.33
2022-07-29T18:35:51.205Z,3.03
2022-07-29T18:38:19.075Z,3.13
2022-07-29T18:40:46.354Z,2.85
2022-07-29T18:43:13.758Z,2.72
2022-07-29T18:45:42.497Z,2.80
2022-07-29T18:48:12.761Z,2.60
2022-07-29T18:50:40.975Z,3.10
2022-07-29T18:53:08.305Z,2.63
2022-07-29T18:55:35.247Z,2.33
2022-07-29T18:58:02.214Z,2.47
2022-07-29T19:00:30.610Z,2.13
2022-07-29T19:02:57.622Z,1.90
2022-07-29T19:05:24.731Z,2.60
2022-07-29T19:07:51.673Z,2.30
2022-07-29T19:10:18.702Z,2.47
2022-07-29T19:12:45.673Z,2.17
2022-07-29T19:15:12.638Z,1.80
2022-07-29T19:17:47.176Z,1.80
2022-07-29T19:20:14.527Z,2.20
2022-07-29T19:22:41.847Z,2.22
2022-07-29T19:25:09.931Z,2.47
2022-07-29T19:27:36.885Z,2.03
2022-07-29T19:30:06.568Z,1.85
2022-07-29T19:32:33.520Z,2.97
2022-07-29T19:35:18.963Z,2.83
2022-07-29T19:37:46.083Z,3.58
2022-07-29T19:40:13.266Z,2.55
2022-07-29T19:42:40.227Z,3.00
2022-07-29T19:45:07.576Z,2.97
2022-07-29T19:47:34.881Z,2.97
2022-07-29T19:50:02.139Z,3.75
2022-07-29T19:52:29.398Z,4.10
2022-07-29T19:54:57.296Z,3.45
2022-07-29T19:57:24.300Z,3.72
2022-07-29T19:59:51.401Z,3.13
2022-07-29T20:02:19.560Z,3.63
2022-07-29T20:04:46.552Z,2.67
2022-07-29T20:07:13.792Z,2.47
2022-07-29T20:09:41.988Z,3.17
2022-07-29T20:12:10.141Z,2.30
2022-07-29T20:14:37.990Z,1.98
2022-07-29T20:17:05.471Z,3.08
2022-07-29T20:19:33.289Z,2.80
2022-07-29T20:22:00.539Z,2.05
2022-07-29T20:24:27.471Z,1.75
2022-07-29T20:26:54.653Z,1.88
2022-07-29T20:29:23.692Z,1.30
2022-07-29T20:31:52.250Z,1.58
2022-07-29T20:34:25.198Z,1.30
2022-07-29T20:36:52.244Z,1.60
2022-07-29T20:39:21.159Z,0.90
2022-07-29T20:41:48.685Z,1.20
2022-07-29T20:44:18.839Z,1.30
2022-07-29T20:46:46.311Z,1.88
2022-07-29T20:49:13.277Z,1.65
2022-07-29T20:51:43.313Z,1.15
2022-07-29T20:54:11.800Z,1.80
2022-07-29T20:56:39.735Z,2.22
2022-07-29T20:59:07.155Z,1.60
2022-07-29T21:01:35.974Z,1.55
2022-07-29T21:04:03.478Z,1.40
2022-07-29T21:06:30.897Z,1.55
2022-07-29T21:08:59.722Z,1.50
2022-07-29T21:11:43.873Z,1.55
2022-07-29T21:14:23.239Z,1.52
2022-07-29T21:16:50.696Z,1.80
2022-07-29T21:19:17.736Z,1.20
2022-07-29T21:21:44.942Z,1.48
2022-07-29T21:24:12.386Z,1.23
2022-07-29T21:26:39.579Z,1.90
2022-07-29T21:29:06.705Z,1.30
2022-07-29T21:31:33.838Z,2.25
2022-07-29T21:34:00.973Z,1.58
2022-07-29T21:36:47.641Z,1.95
2022-07-29T21:39:15.237Z,1.80
2022-07-29T21:41:42.374Z,1.95
2022-07-29T21:44:09.529Z,1.73
2022-07-29T21:46:36.806Z,1.67
2022-07-29T21:49:04.140Z,1.40
2022-07-29T21:51:31.302Z,1.67
2022-07-29T21:53:58.457Z,1.20
2022-07-29T21:56:27.843Z,1.25
2022-07-29T21:58:55.106Z,1.20
2022-07-29T22:01:22.419Z,1.20
2022-07-29T22:03:49.491Z,1.30
2022-07-29T22:06:17.841Z,1.00
2022-07-29T22:08:45.820Z,0.98
2022-07-29T22:11:13.392Z,1.10
2022-07-29T22:13:40.615Z,0.80
2022-07-29T22:16:09.569Z,0.95
2022-07-29T22:18:36.709Z,1.40
2022-07-29T22:21:04.014Z,1.02
2022-07-29T22:23:31.894Z,1.10
2022-07-29T22:25:59.119Z,1.20
2022-07-29T22:28:26.210Z,1.35
2022-07-29T22:30:53.333Z,1.20
2022-07-29T22:33:20.436Z,1.50
2022-07-29T22:35:49.274Z,1.50
2022-07-29T22:38:17.775Z,1.48
2022-07-29T22:40:45.008Z,1.50
2022-07-29T22:43:12.475Z,1.70
2022-07-29T22:45:39.654Z,1.20
2022-07-29T22:48:06.810Z,1.55
2022-07-29T22:50:35.095Z,1.40
2022-07-29T22:53:02.314Z,1.13
2022-07-29T22:55:29.410Z,0.90
2022-07-29T22:57:56.542Z,0.95
2022-07-29T23:00:24.054Z,0.90
2022-07-29T23:02:51.149Z,1.05
2022-07-29T23:05:19.182Z,0.90
2022-07-29T23:07:46.315Z,1.30
2022-07-29T23:10:13.287Z,1.13
2022-07-29T23:12:40.350Z,1.50
2022-07-29T23:15:07.914Z,1.13
2022-07-29T23:17:36.468Z,1.00
2022-07-29T23:20:09.827Z,1.17
2022-07-29T23:22:37.050Z,1.08
2022-07-29T23:25:05.134Z,1.13
2022-07-29T23:27:32.325Z,1.30
2022-07-29T23:29:59.466Z,1.60
2022-07-29T23:32:26.612Z,1.10
2022-07-29T23:34:53.880Z,1.25
2022-07-29T23:37:20.921Z,1.05
2022-07-29T23:39:48.061Z,1.00
2022-07-29T23:42:15.191Z,1.20
2022-07-29T23:44:42.347Z,1.20
2022-07-29T23:47:09.510Z,1.13
2022-07-29T23:49:36.638Z,1.10
2022-07-29T23:52:03.923Z,1.10
2022-07-29T23:54:30.974Z,1.20
2022-07-29T23:56:58.433Z,1.20
2022-07-29T23:59:25.593Z,1.60
